Time;durP1;ratioP1;P1;durP2;ratioP2;P2;SDS_P1;SDS_P2;PMS_P1;PMS_P2;Temp;Humidity;BMP_temperature;BMP_pressure;BME280_temperature;BME280_humidity;BME280_pressure;Samples;Min_cycle;Max_cycle;Signal;HPM_P1;HPM_P2
2022/01/12 00:02:14;;;;;;;22.07;14.53;;;;;;;3.03;84.84;103439.88;5252858;28;20094;-81
2022/01/12 00:04:46;;;;;;;21.07;13.37;;;;;;;3.18;84.67;103453.88;5253278;28;20107;-80
2022/01/12 00:07:17;;;;;;;19.57;12.23;;;;;;;3.21;84.53;103459.09;5252468;28;20021;-80
2022/01/12 00:09:48;;;;;;;21.60;13.47;;;;;;;3.18;85.16;103464.25;5253216;28;20074;-81
2022/01/12 00:12:20;;;;;;;21.97;12.60;;;;;;;3.07;84.88;103451.13;5253472;28;20064;-79
2022/01/12 00:14:52;;;;;;;18.67;12.63;;;;;;;3.17;84.09;103465.94;5252865;28;20091;-80
2022/01/12 00:17:23;;;;;;;18.23;13.13;;;;;;;3.05;84.81;103464.06;5252399;28;20112;-80
2022/01/12 00:19:54;;;;;;;20.07;13.17;;;;;;;3.13;85.27;103474.50;5253220;28;20120;-81
2022/01/12 00:22:27;;;;;;;19.27;12.30;;;;;;;3.09;84.70;103480.53;5252977;28;20026;-80
2022/01/12 00:33:09;;;;;;;21.10;14.47;;;;;;;3.16;84.52;103465.94;5252839;28;20465;-80
2022/01/12 00:33:17;;;;;;;22.33;13.73;;;;;;;3.23;84.27;103478.97;5252789;28;20041;-80
2022/01/12 00:35:51;;;;;;;23.30;13.30;;;;;;;3.24;84.59;103485.03;5252514;28;20024;-80
2022/01/12 00:38:25;;;;;;;21.88;12.30;;;;;;;3.17;84.00;103478.03;5253048;28;20036;-81
2022/01/12 00:40:57;;;;;;;18.17;13.93;;;;;;;3.26;84.43;103485.94;5252686;28;20484;-80
2022/01/12 00:43:30;;;;;;;22.03;12.90;;;;;;;3.25;83.79;103491.94;5251813;28;20033;-80
2022/01/12 00:46:01;;;;;;;21.83;14.03;;;;;;;3.31;84.43;103498.94;5253211;28;20079;-81
2022/01/12 00:48:36;;;;;;;20.30;13.60;;;;;;;3.20;85.35;103503.97;5251092;28;20037;-81
2022/01/12 00:51:10;;;;;;;;;;;;;;;3.41;86.52;103512.88;5253278;28;20025;-80
2022/01/12 00:53:41;;;;;;;25.63;15.07;;;;;;;3.18;87.47;103508.28;5252482;28;20305;-81
2022/01/12 00:56:13;;;;;;;20.93;14.53;;;;;;;3.16;87.35;103508.22;5256232;28;20025;-81
2022/01/12 00:58:44;;;;;;;19.40;13.90;;;;;;;3.23;88.91;103509.22;5251837;28;20116;-81
2022/01/12 01:01:18;;;;;;;23.20;14.30;;;;;;;3.22;88.82;103517.81;5252615;28;20493;-81
2022/01/12 01:03:50;;;;;;;23.92;15.27;;;;;;;3.17;90.42;103517.75;5251466;28;20410;-81
2022/01/12 01:06:23;;;;;;;22.83;14.90;;;;;;;3.07;91.41;103519.31;5252158;28;20032;-81
2022/01/12 01:08:54;;;;;;;25.17;15.77;;;;;;;2.96;93.62;103526.94;5251386;28;20501;-81
2022/01/12 01:11:26;;;;;;;22.57;15.17;;;;;;;2.95;94.04;103524.31;5248692;28;20075;-81
2022/01/12 01:27:35;;;;;;;26.10;17.03;;;;;;;3.05;95.95;103517.56;5252509;28;20032;-81
2022/01/12 01:30:06;;;;;;;27.43;16.63;;;;;;;3.00;96.12;103507.16;5252279;28;20021;-82
2022/01/12 01:32:38;;;;;;;25.53;16.80;;;;;;;2.87;96.12;103500.88;5251498;28;20476;-81
2022/01/12 01:35:10;;;;;;;25.00;16.27;;;;;;;3.01;95.67;103501.09;5252117;28;20032;-80
2022/01/12 01:37:41;;;;;;;29.73;17.80;;;;;;;2.94;96.17;103517.38;5250386;28;20028;-81
2022/01/12 01:40:13;;;;;;;24.07;17.20;;;;;;;2.88;97.30;103531.97;5252130;28;20031;-81
2022/01/12 01:43:09;;;;;;;26.27;18.37;;;;;;;2.95;97.61;103532.09;5250209;28;20108;-81
2022/01/12 01:54:12;;;;;;;27.90;18.53;;;;;;;2.90;98.85;103544.94;5251771;28;20037;-81
2022/01/12 01:56:43;;;;;;;28.10;18.07;;;;;;;2.90;98.22;103516.47;5251867;28;20104;-81
2022/01/12 01:59:15;;;;;;;26.90;18.27;;;;;;;3.01;97.72;103514.94;5251720;28;23122;-81
2022/01/12 02:01:46;;;;;;;27.73;18.30;;;;;;;2.88;97.13;103508.69;5250030;28;20032;-81
2022/01/12 02:04:17;;;;;;;29.67;17.40;;;;;;;2.95;97.28;103503.63;5252060;28;20086;-83
2022/01/12 02:06:49;;;;;;;26.70;17.73;;;;;;;2.95;96.82;103493.25;5250223;22;20095;-81
2022/01/12 02:09:20;;;;;;;29.43;18.03;;;;;;;2.88;97.44;103487.97;5221067;28;20082;-81
2022/01/12 02:11:52;;;;;;;31.13;18.97;;;;;;;2.75;97.86;103467.94;5230061;28;20026;-81
2022/01/12 02:14:23;;;;;;;28.27;18.77;;;;;;;2.68;98.71;103494.53;5231162;28;20080;-81
2022/01/12 02:17:04;;;;;;;30.47;19.60;;;;;;;2.95;98.93;103496.69;5230265;28;20073;-81
2022/01/12 02:36:33;;;;;;;35.77;19.50;;;;;;;2.82;97.31;103534.47;5230903;28;20388;-80
2022/01/12 02:41:54;;;;;;;31.73;18.73;;;;;;;2.87;97.74;103527.66;5231222;28;19912;-80
2022/01/12 02:55:46;;;;;;;30.97;19.93;;;;;;;2.70;97.89;103527.38;5234616;28;20732;-80
2022/01/12 02:58:18;;;;;;;31.70;19.97;;;;;;;2.82;97.51;103542.25;5233046;28;20026;-80
2022/01/12 03:03:47;;;;;;;31.77;19.77;;;;;;;2.81;99.02;103548.25;5233606;28;20033;-80
2022/01/12 03:06:23;;;;;;;31.33;18.92;;;;;;;2.80;97.19;103550.81;5234256;28;20045;-80
2022/01/12 03:08:55;;;;;;;34.20;20.63;;;;;;;2.82;97.67;103555.19;5233144;28;20407;-80
2022/01/12 03:11:28;;;;;;;30.30;18.93;;;;;;;2.91;98.06;103567.41;5234234;28;20033;-80
2022/01/12 03:13:59;;;;;;;30.67;21.13;;;;;;;2.75;97.45;103574.03;5233679;28;20502;-80
2022/01/12 03:16:31;;;;;;;30.77;19.67;;;;;;;2.82;97.40;103575.91;5234034;28;20057;-80
2022/01/12 03:19:03;;;;;;;32.17;21.13;;;;;;;2.78;98.29;103576.69;5231816;28;20059;-80
2022/01/12 03:21:34;;;;;;;34.67;20.87;;;;;;;2.89;97.82;103590.69;5233827;28;20476;-81
2022/01/12 03:24:07;;;;;;;30.20;20.13;;;;;;;2.85;97.97;103599.25;5234056;28;20078;-80
2022/01/12 03:26:38;;;;;;;28.17;20.67;;;;;;;2.89;97.76;103600.16;5233980;28;20025;-80
2022/01/12 03:29:10;;;;;;;32.67;20.97;;;;;;;2.94;98.43;103595.94;5232398;28;20033;-80
2022/01/12 03:31:41;;;;;;;30.67;20.97;;;;;;;2.90;97.98;103583.78;5232424;28;20079;-80
2022/01/12 03:34:26;;;;;;;30.30;21.33;;;;;;;2.89;97.83;103597.56;5233968;28;20660;-80
2022/01/12 03:39:46;;;;;;;35.93;21.20;;;;;;;2.76;97.42;103575.78;5233442;28;20483;-80
2022/01/12 03:42:19;;;;;;;30.50;21.20;;;;;;;2.59;98.13;103560.84;5233716;28;20087;-81
2022/01/12 03:44:50;;;;;;;33.60;22.40;;;;;;;2.74;98.76;103582.66;5233698;28;20555;-80
2022/01/12 03:47:21;;;;;;;37.00;22.77;;;;;;;2.83;98.52;103587.97;5214066;28;20125;-80
2022/01/12 03:49:53;;;;;;;35.87;22.23;;;;;;;2.64;99.67;103574.72;5232273;28;20079;-78
2022/01/12 03:52:24;;;;;;;37.00;22.63;;;;;;;2.80;98.82;103575.00;5232781;28;20040;-79
2022/01/12 03:54:55;;;;;;;34.37;21.67;;;;;;;2.72;98.66;103571.41;5231978;28;20421;-80
2022/01/12 03:57:26;;;;;;;36.87;21.13;;;;;;;2.75;99.04;103586.97;5232899;28;20036;-79
2022/01/12 03:59:58;;;;;;;37.37;21.83;;;;;;;2.72;99.77;103590.41;5232887;28;20546;-78
2022/01/12 04:02:30;;;;;;;38.33;21.50;;;;;;;2.72;99.88;103594.69;5232263;28;20029;-79
2022/01/12 04:10:42;;;;;;;46.10;25.70;;;;;;;2.69;100.00;103607.59;5233010;28;20041;-80
2022/01/12 04:13:14;;;;;;;41.37;23.30;;;;;;;2.55;100.00;103605.59;5231358;28;20022;-79
2022/01/12 04:15:49;;;;;;;38.50;23.13;;;;;;;2.79;100.00;103609.50;5232525;28;20021;-79
2022/01/12 04:18:21;;;;;;;38.43;24.60;;;;;;;2.83;100.00;103611.28;5232383;28;20052;-79
2022/01/12 04:20:52;;;;;;;43.07;24.67;;;;;;;2.82;100.00;103603.50;5231317;28;20033;-79
2022/01/12 04:23:24;;;;;;;41.40;24.40;;;;;;;2.74;100.00;103604.22;5232777;28;20026;-79
2022/01/12 04:25:58;;;;;;;37.70;24.60;;;;;;;2.86;100.00;103615.66;5232389;28;20071;-79
2022/01/12 04:28:30;;;;;;;37.92;23.63;;;;;;;2.75;100.00;103607.69;5232671;28;20081;-79
2022/01/12 04:31:01;;;;;;;40.03;24.97;;;;;;;2.90;100.00;103620.91;5216653;28;20165;-79
2022/01/12 04:33:34;;;;;;;39.67;23.77;;;;;;;2.77;100.00;103613.75;5210600;28;20107;-79
2022/01/12 04:36:07;;;;;;;38.93;23.53;;;;;;;2.80;100.00;103610.34;5215649;28;20032;-78
2022/01/12 04:38:40;;;;;;;40.47;26.40;;;;;;;2.90;100.00;103605.38;5212779;28;20030;-79
2022/01/12 04:41:13;;;;;;;36.87;24.83;;;;;;;2.86;100.00;103597.53;5211750;28;20038;-78
2022/01/12 04:43:44;;;;;;;39.97;24.50;;;;;;;2.87;100.00;103602.72;5211376;28;20037;-79
2022/01/12 04:48:54;;;;;;;37.20;25.63;;;;;;;2.72;100.00;103603.34;5210903;28;20044;-79
2022/01/12 04:51:26;;;;;;;46.20;26.17;;;;;;;2.75;100.00;103600.81;5211641;28;20034;-79
2022/01/12 04:53:58;;;;;;;42.33;26.43;;;;;;;2.75;100.00;103595.63;5211907;28;20025;-78
2022/01/12 04:56:30;;;;;;;39.77;24.90;;;;;;;2.80;100.00;103598.28;5210797;28;20036;-78
2022/01/12 04:59:02;;;;;;;46.40;26.77;;;;;;;2.62;100.00;103578.09;5210466;28;20839;-79
2022/01/12 05:01:36;;;;;;;42.13;26.53;;;;;;;2.73;100.00;103575.72;5210240;28;20137;-78
2022/01/12 05:07:22;;;;;;;39.53;24.93;;;;;;;2.80;100.00;103582.75;5211045;28;20081;-79
2022/01/12 05:15:22;;;;;;;47.05;27.38;;;;;;;2.73;100.00;103589.53;5211211;28;20026;-79
2022/01/12 05:17:54;;;;;;;40.67;27.33;;;;;;;2.72;100.00;103589.53;5210601;28;20053;-79
2022/01/12 05:20:25;;;;;;;45.73;28.97;;;;;;;2.73;100.00;103586.06;5210572;28;20218;-78
2022/01/12 05:22:56;;;;;;;41.17;27.73;;;;;;;2.76;100.00;103596.47;5211471;28;20105;-78
2022/01/12 05:25:28;;;;;;;45.67;27.00;;;;;;;2.77;100.00;103596.53;5209409;28;20022;-79
2022/01/12 05:27:59;;;;;;;48.03;29.23;;;;;;;2.60;100.00;103585.84;5211112;28;20022;-79
2022/01/12 05:30:30;;;;;;;50.27;29.60;;;;;;;2.78;100.00;103589.63;5210820;28;20029;-79
2022/01/12 05:33:01;;;;;;;50.83;30.20;;;;;;;2.76;100.00;103601.66;5210234;28;20030;-78
2022/01/12 05:35:33;;;;;;;46.13;29.97;;;;;;;2.74;100.00;103614.56;5210559;28;20029;-79
2022/01/12 05:38:08;;;;;;;48.17;30.40;;;;;;;2.85;100.00;103613.88;5210537;28;20033;-79
2022/01/12 05:40:42;;;;;;;47.25;28.40;;;;;;;2.88;100.00;103621.72;5210732;28;20049;-79
2022/01/12 05:43:16;;;;;;;48.10;30.02;;;;;;;2.87;100.00;103613.09;5211385;28;20103;-80
2022/01/12 05:45:47;;;;;;;47.58;29.90;;;;;;;2.83;100.00;103613.00;5210651;28;20388;-79
2022/01/12 05:50:52;;;;;;;48.83;30.10;;;;;;;2.68;100.00;103613.59;5210529;28;20037;-77
2022/01/12 05:53:23;;;;;;;42.90;28.83;;;;;;;2.62;100.00;103624.69;5210896;28;20022;-80
2022/01/12 05:55:54;;;;;;;44.00;27.83;;;;;;;2.75;100.00;103630.97;5210645;28;20410;-80
2022/01/12 05:58:27;;;;;;;46.57;31.87;;;;;;;2.57;100.00;103619.44;5210630;28;20087;-80
2022/01/12 06:00:58;;;;;;;49.57;29.93;;;;;;;2.70;100.00;103619.66;5208822;28;20086;-79
2022/01/12 06:03:31;;;;;;;44.40;29.43;;;;;;;2.69;100.00;103617.94;5209078;28;21178;-79
2022/01/12 06:06:02;;;;;;;51.30;30.20;;;;;;;2.77;100.00;103622.41;5210698;28;20439;-80
2022/01/12 06:08:34;;;;;;;51.47;32.17;;;;;;;2.65;100.00;103617.84;5209816;28;20061;-80
2022/01/12 06:11:06;;;;;;;46.73;30.47;;;;;;;2.61;100.00;103631.59;5209484;28;20034;-82
2022/01/12 06:13:37;;;;;;;43.77;31.23;;;;;;;2.69;100.00;103639.50;5210120;28;20022;-82
2022/01/12 06:16:08;;;;;;;46.87;30.57;;;;;;;2.77;100.00;103624.13;5209578;28;20041;-83
2022/01/12 06:18:40;;;;;;;48.07;31.70;;;;;;;2.67;100.00;103638.63;5210606;28;20018;-83
2022/01/12 06:21:11;;;;;;;53.97;31.70;;;;;;;2.57;100.00;103632.38;5209601;28;20088;-77
2022/01/12 06:23:42;;;;;;;48.70;31.00;;;;;;;2.68;100.00;103634.28;5212662;28;20033;-79
2022/01/12 06:26:13;;;;;;;53.13;30.47;;;;;;;2.65;100.00;103648.91;5213004;28;20030;-79
2022/01/12 06:28:54;;;;;;;49.67;32.00;;;;;;;2.63;100.00;103650.63;5214327;28;20032;-77
2022/01/12 06:31:26;;;;;;;52.60;31.60;;;;;;;2.77;100.00;103650.88;5211762;28;20026;-82
2022/01/12 06:33:58;;;;;;;52.80;33.50;;;;;;;2.77;100.00;103666.41;5213155;28;20026;-82
2022/01/12 06:36:29;;;;;;;50.13;31.13;;;;;;;2.74;100.00;103665.47;5210166;28;20033;-81
2022/01/12 06:39:01;;;;;;;53.47;31.53;;;;;;;2.83;100.00;103669.97;5207416;28;20034;-80
2022/01/12 06:41:32;;;;;;;49.17;30.50;;;;;;;2.73;100.00;103671.47;5213445;28;20036;-80
2022/01/12 06:44:05;;;;;;;51.73;30.73;;;;;;;2.80;100.00;103680.22;5213337;28;20420;-80
2022/01/12 06:46:36;;;;;;;53.97;31.43;;;;;;;2.73;100.00;103674.06;5212942;28;20022;-79
2022/01/12 06:49:07;;;;;;;48.17;31.23;;;;;;;2.81;100.00;103697.53;5208128;28;20104;-79
2022/01/12 06:51:39;;;;;;;48.30;33.40;;;;;;;2.84;100.00;103701.06;5201326;28;20038;-80
2022/01/12 06:54:13;;;;;;;47.07;30.13;;;;;;;2.83;100.00;103694.09;5200102;28;20546;-81
2022/01/12 06:56:44;;;;;;;47.73;30.53;;;;;;;2.84;100.00;103682.94;5203245;28;20800;-82
2022/01/12 06:59:15;;;;;;;47.27;31.33;;;;;;;2.82;100.00;103689.78;5204905;28;20030;-82
2022/01/12 07:01:46;;;;;;;52.73;33.27;;;;;;;2.79;100.00;103689.75;5200988;28;20491;-82
2022/01/12 07:04:18;;;;;;;48.70;33.17;;;;;;;2.69;100.00;103672.28;5205340;28;20363;-81
2022/01/12 07:06:49;;;;;;;49.77;32.73;;;;;;;2.76;100.00;103684.47;5203591;28;20049;-80
2022/01/12 07:09:20;;;;;;;46.53;31.10;;;;;;;2.86;100.00;103696.75;5200980;28;20129;-80
2022/01/12 07:11:51;;;;;;;49.90;33.03;;;;;;;2.83;100.00;103696.69;5197994;28;20765;-80
2022/01/12 07:14:23;;;;;;;52.57;32.37;;;;;;;2.79;100.00;103720.81;5201910;28;20532;-80
2022/01/12 07:16:54;;;;;;;50.17;32.27;;;;;;;2.81;100.00;103708.72;5199724;28;20037;-81
2022/01/12 07:19:25;;;;;;;47.33;31.67;;;;;;;2.79;100.00;103692.31;5200878;28;20476;-82
2022/01/12 07:21:57;;;;;;;48.00;31.67;;;;;;;2.85;100.00;103700.19;5201816;28;20374;-80
2022/01/12 07:24:28;;;;;;;44.53;32.17;;;;;;;2.88;100.00;103713.19;5206426;28;20044;-81
2022/01/12 07:26:59;;;;;;;46.20;31.50;;;;;;;2.86;100.00;103714.03;5213549;28;20508;-81
2022/01/12 07:29:31;;;;;;;46.33;32.53;;;;;;;2.89;100.00;103709.78;5212315;28;20033;-80
2022/01/12 07:32:02;;;;;;;43.70;29.37;;;;;;;2.89;100.00;103716.66;5205960;28;20037;-78
2022/01/12 07:34:33;;;;;;;48.67;32.73;;;;;;;2.87;100.00;103718.34;5208770;28;20026;-79
2022/01/12 07:37:05;;;;;;;48.07;33.03;;;;;;;2.82;100.00;103726.03;5204999;28;20132;-79
2022/01/12 07:39:37;;;;;;;49.23;32.73;;;;;;;2.82;100.00;103731.22;5202279;28;20037;-79
2022/01/12 07:42:08;;;;;;;50.87;33.50;;;;;;;2.75;100.00;103734.50;5211325;28;20105;-79
2022/01/12 07:44:40;;;;;;;49.53;33.30;;;;;;;2.86;100.00;103747.69;5212181;28;20041;-79
2022/01/12 07:47:11;;;;;;;46.47;30.90;;;;;;;2.86;100.00;103758.03;5199235;28;20034;-79
2022/01/12 07:49:43;;;;;;;48.73;32.67;;;;;;;2.94;100.00;103753.88;5192116;28;20026;-79
2022/01/12 07:52:14;;;;;;;51.37;33.57;;;;;;;2.92;100.00;103757.25;5192651;28;20605;-79
2022/01/12 07:54:45;;;;;;;47.00;31.83;;;;;;;2.93;100.00;103762.50;5191390;28;20056;-79
2022/01/12 07:57:17;;;;;;;95.10;33.43;;;;;;;2.84;100.00;103765.78;5192103;28;20056;-79
2022/01/12 07:59:48;;;;;;;48.60;32.63;;;;;;;2.94;100.00;103773.69;5194506;28;20458;-82
2022/01/12 08:02:20;;;;;;;49.80;31.93;;;;;;;2.81;100.00;103781.22;5194091;28;20033;-80
2022/01/12 08:04:51;;;;;;;49.70;33.63;;;;;;;2.99;100.00;103788.50;5191233;28;20030;-74
2022/01/12 08:07:22;;;;;;;50.17;32.90;;;;;;;2.72;100.00;103778.47;5192081;28;20045;-84
2022/01/12 08:09:55;;;;;;;48.00;31.87;;;;;;;2.96;100.00;103784.97;5192205;28;20400;-77
2022/01/12 08:12:26;;;;;;;50.27;33.27;;;;;;;2.88;100.00;103772.72;5191382;28;20034;-77
2022/01/12 08:14:57;;;;;;;57.70;34.50;;;;;;;2.89;100.00;103799.50;5192461;28;20092;-78
2022/01/12 08:17:28;;;;;;;47.67;31.97;;;;;;;2.78;100.00;103797.56;5189220;28;20030;-79
2022/01/12 08:20:01;;;;;;;53.77;33.93;;;;;;;3.02;100.00;103810.97;5191995;28;20022;-78
2022/01/12 08:22:32;;;;;;;58.87;35.13;;;;;;;2.78;100.00;103813.09;5196844;28;20122;-79
2022/01/12 08:25:05;;;;;;;53.60;33.93;;;;;;;2.99;100.00;103808.31;5191882;28;20102;-79
2022/01/12 08:27:38;;;;;;;62.53;36.13;;;;;;;2.88;100.00;103811.56;5192187;28;20022;-76
2022/01/12 08:30:18;;;;;;;75.27;38.23;;;;;;;2.93;100.00;103815.97;5190352;28;20128;-79
2022/01/12 08:32:51;;;;;;;75.60;41.13;;;;;;;2.94;100.00;103800.47;5190751;28;20019;-78
2022/01/12 08:35:23;;;;;;;78.23;38.07;;;;;;;3.00;100.00;103810.94;5189925;28;20020;-78
2022/01/12 08:37:55;;;;;;;68.80;38.40;;;;;;;3.01;100.00;103810.13;5191953;28;20477;-79
2022/01/12 08:40:26;;;;;;;66.63;38.30;;;;;;;3.02;100.00;103813.56;5190569;28;20030;-79
2022/01/12 08:42:58;;;;;;;86.10;40.27;;;;;;;3.02;100.00;103813.56;5190962;28;20129;-80
2022/01/12 08:45:29;;;;;;;73.70;38.07;;;;;;;3.09;100.00;103807.66;5188390;28;20026;-79
2022/01/12 08:48:00;;;;;;;92.20;39.63;;;;;;;3.00;100.00;103805.75;5189598;28;20470;-79
2022/01/12 08:50:31;;;;;;;86.57;40.20;;;;;;;3.00;100.00;103810.09;5190593;28;20038;-79
2022/01/12 08:53:03;;;;;;;84.03;40.03;;;;;;;2.95;100.00;103807.38;5190673;28;20513;-79
2022/01/12 08:55:34;;;;;;;92.67;43.10;;;;;;;3.04;100.00;103804.13;5190764;28;20473;-79
2022/01/12 08:58:06;;;;;;;87.03;40.77;;;;;;;3.22;100.00;103820.88;5191278;28;20037;-79
2022/01/12 09:00:38;;;;;;;89.53;39.63;;;;;;;3.22;100.00;103818.28;5189374;28;20029;-79
2022/01/12 09:03:09;;;;;;;80.17;41.37;;;;;;;3.26;100.00;103823.53;5191023;28;20030;-79
2022/01/12 09:05:40;;;;;;;98.03;42.43;;;;;;;3.31;100.00;103836.59;5190205;28;20525;-79
2022/01/12 09:08:11;;;;;;;81.97;39.27;;;;;;;3.22;100.00;103813.97;5190513;28;20529;-78
2022/01/12 09:10:43;;;;;;;108.97;41.33;;;;;;;3.16;100.00;103833.72;5189962;28;20097;-79
2022/01/12 09:13:14;;;;;;;90.10;40.23;;;;;;;3.24;100.00;103847.69;5190662;28;20030;-79
2022/01/12 09:15:45;;;;;;;89.10;40.10;;;;;;;3.17;100.00;103851.88;5189483;28;20053;-79
2022/01/12 09:18:18;;;;;;;81.10;39.17;;;;;;;3.23;100.00;103849.38;5190381;28;20026;-78
2022/01/12 09:20:49;;;;;;;84.27;39.47;;;;;;;3.30;100.00;103863.31;5190153;28;20119;-79
2022/01/12 09:23:20;;;;;;;70.73;36.70;;;;;;;3.38;100.00;103872.16;5190313;28;20627;-79
2022/01/12 09:25:52;;;;;;;77.20;36.03;;;;;;;3.30;100.00;103852.97;5189979;28;20034;-79
2022/01/12 09:28:24;;;;;;;62.10;32.63;;;;;;;3.38;100.00;103858.31;5190483;28;20389;-78
2022/01/12 09:30:55;;;;;;;63.50;33.80;;;;;;;3.38;100.00;103872.16;5187662;28;20030;-78
2022/01/12 09:33:26;;;;;;;65.73;34.57;;;;;;;3.36;100.00;103879.00;5190274;28;20842;-79
2022/01/12 09:35:58;;;;;;;68.90;33.67;;;;;;;3.41;100.00;103880.81;5190019;28;20026;-79
2022/01/12 09:38:29;;;;;;;70.47;31.73;;;;;;;3.32;100.00;103871.13;5190161;28;20030;-79
2022/01/12 09:41:02;;;;;;;111.87;31.37;;;;;;;3.41;100.00;103880.81;5189983;28;20776;-79
2022/01/12 09:43:36;;;;;;;94.13;31.27;;;;;;;3.36;100.00;103885.91;5190036;28;20041;-79
2022/01/12 09:46:07;;;;;;;87.28;28.73;;;;;;;3.36;100.00;103881.59;5189407;28;20034;-79
2022/01/12 09:48:40;;;;;;;81.73;31.30;;;;;;;3.38;100.00;103885.09;5189582;28;20022;-79
2022/01/12 09:51:11;;;;;;;69.03;31.33;;;;;;;3.42;100.00;103882.56;5189064;28;20153;-78
2022/01/12 09:53:44;;;;;;;76.23;30.70;;;;;;;3.44;100.00;103880.88;5189606;28;20439;-79
2022/01/12 09:56:18;;;;;;;76.13;31.53;;;;;;;3.46;100.00;103887.84;5191253;28;20030;-80
2022/01/12 09:58:53;;;;;;;67.10;30.60;;;;;;;3.49;100.00;103879.25;5191860;28;20413;-79
2022/01/12 10:01:33;;;;;;;78.93;32.07;;;;;;;3.50;100.00;103886.19;5188695;28;20385;-79
2022/01/12 10:04:15;;;;;;;63.50;31.23;;;;;;;3.51;100.00;103895.69;5189961;28;20433;-79
2022/01/12 10:06:53;;;;;;;69.27;32.57;;;;;;;3.64;100.00;103909.78;5188172;28;20520;-79
2022/01/12 10:09:33;;;;;;;72.37;31.53;;;;;;;3.52;100.00;103925.97;5189516;28;20034;-80
2022/01/12 10:12:09;;;;;;;53.47;29.00;;;;;;;3.61;100.00;103920.09;5189806;28;20015;-80
2022/01/12 10:14:45;;;;;;;67.13;28.27;;;;;;;3.62;100.00;103917.53;5189086;28;20022;-80
2022/01/12 10:17:18;;;;;;;52.23;26.93;;;;;;;3.68;100.00;103921.97;5189117;28;20026;-79
2022/01/12 10:19:49;;;;;;;43.90;25.17;;;;;;;3.65;100.00;103913.25;5189398;28;20485;-80
2022/01/12 10:22:20;;;;;;;70.87;28.47;;;;;;;3.54;100.00;103913.03;5188486;28;20035;-79
2022/01/12 10:24:52;;;;;;;58.47;25.77;;;;;;;3.62;100.00;103909.75;5187948;28;20026;-79
2022/01/12 10:27:23;;;;;;;51.40;26.07;;;;;;;3.60;100.00;103911.44;5188987;28;20026;-79
2022/01/12 10:29:58;;;;;;;80.17;23.93;;;;;;;3.50;100.00;103912.09;5189917;28;20065;-79
2022/01/12 10:32:29;;;;;;;84.15;25.45;;;;;;;3.57;100.00;103898.41;5186929;28;20034;-79
2022/01/12 10:35:00;;;;;;;84.80;26.10;;;;;;;3.53;100.00;103896.59;5189764;28;20022;-78
2022/01/12 10:37:32;;;;;;;53.70;24.87;;;;;;;3.66;100.00;103902.03;5189261;28;20084;-79
2022/01/12 10:40:04;;;;;;;52.37;24.90;;;;;;;3.65;100.00;103903.72;5189630;28;20034;-79
2022/01/12 10:42:37;;;;;;;64.60;24.50;;;;;;;3.63;100.00;103898.53;5190045;28;20069;-78
2022/01/12 10:45:08;;;;;;;95.37;24.57;;;;;;;3.68;100.00;103909.00;5189509;28;20221;-79
2022/01/12 10:47:40;;;;;;;67.10;24.60;;;;;;;3.75;100.00;103907.41;5188670;28;20022;-78
2022/01/12 10:50:11;;;;;;;48.40;25.40;;;;;;;3.72;100.00;103908.19;5189585;28;20030;-79
2022/01/12 10:52:50;;;;;;;74.13;26.70;;;;;;;3.66;100.00;103902.03;5189462;28;20022;-78
2022/01/12 10:55:22;;;;;;;62.47;25.40;;;;;;;3.71;100.00;103916.84;5194183;28;20022;-78
2022/01/12 10:57:58;;;;;;;63.43;24.60;;;;;;;3.73;100.00;103914.25;5199362;28;20029;-78
2022/01/12 11:00:30;;;;;;;111.17;27.13;;;;;;;3.65;100.00;103910.66;5190693;28;20030;-75
2022/01/12 11:03:01;;;;;;;60.43;26.83;;;;;;;3.72;100.00;103922.88;5189714;28;20097;-77
2022/01/12 11:05:33;;;;;;;137.17;25.03;;;;;;;3.51;100.00;103919.91;5188188;28;20033;-79
2022/01/12 11:08:04;;;;;;;63.53;23.57;;;;;;;3.69;100.00;103915.91;5189517;28;20715;-82
2022/01/12 11:10:35;;;;;;;120.87;27.13;;;;;;;3.66;100.00;103925.34;5193218;28;20121;-82
2022/01/12 11:13:07;;;;;;;107.13;27.67;;;;;;;3.73;100.00;103909.97;5194795;28;20034;-77
2022/01/12 11:15:38;;;;;;;60.67;24.73;;;;;;;3.75;100.00;103915.16;5209148;28;20467;-80
2022/01/12 11:18:10;;;;;;;56.03;27.57;;;;;;;3.70;100.00;103919.41;5212414;28;20026;-79
2022/01/12 11:20:43;;;;;;;106.40;26.70;;;;;;;3.70;100.00;103916.81;5205546;28;20034;-77
2022/01/12 11:23:17;;;;;;;153.17;28.33;;;;;;;3.55;100.00;103913.06;5192853;28;20081;-79
2022/01/12 11:25:51;;;;;;;75.45;26.92;;;;;;;3.67;100.00;103916.72;5193384;28;20026;-79
2022/01/12 11:28:25;;;;;;;60.73;26.20;;;;;;;3.61;100.00;103926.13;5192672;28;20030;-78
2022/01/12 11:30:56;;;;;;;53.25;24.45;;;;;;;3.70;100.00;103928.03;5191574;28;20072;-78
2022/01/12 11:33:30;;;;;;;46.90;25.33;;;;;;;3.73;100.00;103930.69;5192270;28;20069;-78
2022/01/12 11:36:03;;;;;;;44.95;26.30;;;;;;;3.77;100.00;103922.97;5192542;28;20110;-78
2022/01/12 11:38:35;;;;;;;45.43;24.67;;;;;;;3.79;100.00;103929.91;5192334;28;20034;-79
2022/01/12 11:41:27;;;;;;;49.07;27.30;;;;;;;3.87;100.00;103936.13;5202604;28;20625;-77
2022/01/12 11:44:03;;;;;;;49.83;27.53;;;;;;;3.80;100.00;103936.88;5218020;28;20064;-76
2022/01/12 11:46:47;;;;;;;40.83;24.43;;;;;;;3.83;100.00;103926.56;5201659;28;20045;-84
2022/01/12 11:49:29;;;;;;;46.93;27.57;;;;;;;3.81;100.00;103917.88;5203924;28;20022;-76
2022/01/12 11:52:12;;;;;;;53.97;27.57;;;;;;;3.80;100.00;103904.88;5199890;28;20031;-76
2022/01/12 11:54:47;;;;;;;48.53;27.90;;;;;;;3.85;100.00;103904.13;5205304;28;20037;-75
2022/01/12 11:57:19;;;;;;;;;;;;;;;4.10;100.00;103904.53;5211097;28;20041;-80
2022/01/12 11:59:54;;;;;;;49.30;25.80;;;;;;;4.01;100.00;103899.22;5212432;28;20328;-80
2022/01/12 12:02:31;;;;;;;;;;;;;;;4.19;100.00;103910.75;5211469;28;20038;-80
2022/01/12 12:05:08;;;;;;;51.93;27.73;;;;;;;4.01;100.00;103911.28;5212375;28;19928;-80
2022/01/12 12:07:51;;;;;;;50.90;26.03;;;;;;;4.08;100.00;103919.22;5211628;28;20127;-79
2022/01/12 12:10:25;;;;;;;46.40;26.83;;;;;;;4.03;100.00;103920.88;5211837;28;20428;-78
2022/01/12 12:12:58;;;;;;;45.17;26.13;;;;;;;3.83;100.00;103917.88;5211819;28;20489;-79
2022/01/12 12:15:30;;;;;;;43.77;25.90;;;;;;;3.82;100.00;103919.59;5211446;28;20037;-78
2022/01/12 12:18:04;;;;;;;48.00;24.70;;;;;;;3.96;100.00;103916.41;5211875;28;20481;-77
2022/01/12 12:20:36;;;;;;;45.60;26.13;;;;;;;3.96;100.00;103917.25;5215516;28;20034;-77
2022/01/12 12:23:08;;;;;;;42.80;24.10;;;;;;;3.86;100.00;103915.34;5214002;28;20030;-77
2022/01/12 12:25:40;;;;;;;45.63;24.90;;;;;;;4.04;100.00;103925.19;5211294;28;20785;-75
2022/01/12 12:28:13;;;;;;;51.17;24.57;;;;;;;4.01;100.00;103908.69;5212073;28;20026;-80
2022/01/12 12:30:44;;;;;;;58.20;27.30;;;;;;;4.03;100.00;103928.66;5210583;28;20887;-80
2022/01/12 12:33:16;;;;;;;52.87;29.47;;;;;;;3.77;100.00;103913.47;5212031;28;20026;-79
2022/01/12 12:35:47;;;;;;;45.13;25.23;;;;;;;3.67;100.00;103911.53;5211746;28;20109;-79
2022/01/12 12:38:22;;;;;;;42.50;24.60;;;;;;;3.63;100.00;103915.81;5210303;28;20053;-80
2022/01/12 12:40:55;;;;;;;54.13;28.73;;;;;;;3.47;100.00;103912.03;5211599;28;20030;-79
2022/01/12 12:43:33;;;;;;;47.33;26.60;;;;;;;3.38;100.00;103921.38;5210985;28;20080;-80
2022/01/12 12:46:11;;;;;;;51.30;27.63;;;;;;;3.53;100.00;103911.25;5210960;28;20030;-79
2022/01/12 12:48:43;;;;;;;48.00;28.30;;;;;;;3.53;100.00;103900.91;5211393;28;20104;-80
2022/01/12 12:51:16;;;;;;;47.83;26.37;;;;;;;3.51;100.00;103895.69;5212039;28;20488;-80
2022/01/12 12:53:52;;;;;;;46.20;26.13;;;;;;;3.48;100.00;103891.34;5211135;28;20237;-78
2022/01/12 12:56:27;;;;;;;53.07;25.70;;;;;;;3.44;100.00;103873.13;5214726;28;20394;-79
2022/01/12 12:58:59;;;;;;;50.73;27.83;;;;;;;3.60;100.00;103877.72;5216943;28;20048;-78
2022/01/12 13:01:31;;;;;;;49.17;26.30;;;;;;;3.69;100.00;103886.53;5211729;28;20037;-80